Time;durP1;ratioP1;P1;durP2;ratioP2;P2;SDS_P1;SDS_P2;PMS_P1;PMS_P2;Temp;Humidity;BMP_temperature;BMP_pressure;BME280_temperature;BME280_humidity;BME280_pressure;Samples;Min_cycle;Max_cycle;Signal;HPM_P1;HPM_P2
2021/06/06 00:01:31;;;;;;;32.97;20.85;;;14.70;99.90;;;;;;5030697;28;20190;-88
2021/06/06 00:03:58;;;;;;;31.95;20.60;;;14.70;99.90;;;;;;5041799;28;20159;-88
2021/06/06 00:06:28;;;;;;;31.88;21.25;;;14.70;99.90;;;;;;5039724;28;20174;-88
2021/06/06 00:08:54;;;;;;;34.90;21.55;;;14.70;99.90;;;;;;5066723;28;20226;-88
2021/06/06 00:11:28;;;;;;;34.70;21.50;;;14.70;99.90;;;;;;5041793;28;20174;-88
2021/06/06 00:13:56;;;;;;;32.50;23.75;;;14.70;99.90;;;;;;5032108;28;20531;-88
2021/06/06 00:16:27;;;;;;;28.20;21.13;;;14.60;99.90;;;;;;5034451;28;20183;-88
2021/06/06 00:18:53;;;;;;;27.15;21.48;;;14.70;99.90;;;;;;5034484;28;20200;-89
2021/06/06 00:21:20;;;;;;;29.23;20.85;;;14.70;99.90;;;;;;5066240;28;20563;-88
2021/06/06 00:23:46;;;;;;;43.08;24.05;;;14.70;99.90;;;;;;5033382;28;20172;-85
2021/06/06 00:26:12;;;;;;;45.47;25.17;;;14.60;99.90;;;;;;5049121;28;20180;-88
2021/06/06 00:28:38;;;;;;;32.03;22.73;;;14.60;99.90;;;;;;5048763;28;20208;-88
2021/06/06 00:31:08;;;;;;;36.08;23.25;;;14.60;99.90;;;;;;5034985;28;20182;-88
2021/06/06 00:33:35;;;;;;;29.17;21.85;;;14.50;99.90;;;;;;5034612;28;20164;-88
2021/06/06 00:36:02;;;;;;;36.67;24.65;;;14.50;99.90;;;;;;5031916;28;20221;-88
2021/06/06 00:38:27;;;;;;;42.10;23.77;;;14.40;99.90;;;;;;5032849;28;20192;-83
2021/06/06 00:40:56;;;;;;;28.52;22.23;;;14.30;99.90;;;;;;5013314;28;20236;-88
2021/06/06 00:43:22;;;;;;;32.33;22.92;;;14.20;99.90;;;;;;5013320;28;20258;-88
2021/06/06 00:45:47;;;;;;;30.45;22.42;;;14.10;99.90;;;;;;5021118;28;20557;-89
2021/06/06 00:48:13;;;;;;;35.03;23.70;;;14.10;99.90;;;;;;5041939;28;20290;-89
2021/06/06 00:50:47;;;;;;;34.88;23.90;;;14.10;99.90;;;;;;5046435;28;20168;-88
2021/06/06 00:53:20;;;;;;;34.38;25.25;;;14.00;99.90;;;;;;5034073;28;20167;-88
2021/06/06 00:55:46;;;;;;;33.55;24.10;;;13.90;99.90;;;;;;5046858;28;20203;-88
2021/06/06 00:58:14;;;;;;;40.78;26.02;;;13.80;99.90;;;;;;5056919;28;20207;-88
2021/06/06 01:00:43;;;;;;;35.63;24.95;;;13.80;99.90;;;;;;5036618;28;20174;-88
2021/06/06 01:03:10;;;;;;;44.38;27.63;;;13.80;99.90;;;;;;5034262;28;20168;-88
2021/06/06 01:05:45;;;;;;;32.72;24.88;;;13.80;99.90;;;;;;5027693;28;20173;-88
2021/06/06 01:08:14;;;;;;;38.15;25.35;;;13.80;99.90;;;;;;5013999;28;20208;-89
2021/06/06 01:10:40;;;;;;;42.67;26.67;;;13.80;99.90;;;;;;5024209;28;20168;-88
2021/06/06 01:13:31;;;;;;;39.45;28.92;;;13.80;99.90;;;;;;5069974;28;20698;-89
2021/06/06 01:16:04;;;;;;;43.28;28.08;;;13.90;99.90;;;;;;5035455;28;20219;-89
2021/06/06 01:18:34;;;;;;;42.15;28.30;;;13.80;99.90;;;;;;5037734;28;20601;-89
2021/06/06 01:21:26;;;;;;;39.58;26.08;;;13.70;99.90;;;;;;5035933;28;20191;-88
2021/06/06 01:24:00;;;;;;;38.38;24.30;;;13.60;99.90;;;;;;5037217;28;20203;-88
2021/06/06 01:26:32;;;;;;;37.08;26.08;;;13.60;99.90;;;;;;5043834;28;20177;-88
2021/06/06 01:29:06;;;;;;;39.22;24.90;;;13.60;99.90;;;;;;5061917;28;20206;-88
2021/06/06 01:31:36;;;;;;;35.97;24.65;;;13.60;99.90;;;;;;5054099;28;20171;-88
2021/06/06 01:34:06;;;;;;;39.88;26.88;;;13.50;99.90;;;;;;5041753;28;20172;-89
2021/06/06 01:36:38;;;;;;;35.75;26.15;;;13.50;99.90;;;;;;5039981;28;20176;-87
2021/06/06 01:39:14;;;;;;;41.35;26.73;;;13.60;99.90;;;;;;5038321;28;20188;-88
2021/06/06 01:41:45;;;;;;;52.95;28.33;;;13.60;99.90;;;;;;5037179;28;20247;-89
2021/06/06 01:44:14;;;;;;;42.38;28.55;;;13.60;99.90;;;;;;5037869;28;20589;-88
2021/06/06 01:47:03;;;;;;;40.25;27.55;;;13.60;99.90;;;;;;5035114;28;20178;-89
2021/06/06 01:49:30;;;;;;;39.92;27.85;;;13.60;99.90;;;;;;5037027;28;20188;-88
2021/06/06 01:52:00;;;;;;;43.38;28.67;;;13.50;99.90;;;;;;5035116;28;20179;-87
2021/06/06 01:54:31;;;;;;;43.33;28.38;;;13.40;99.90;;;;;;5036007;28;20695;-88
2021/06/06 01:56:57;;;;;;;48.47;30.17;;;13.30;99.90;;;;;;5035292;28;20168;-88
2021/06/06 01:59:32;;;;;;;47.85;31.63;;;13.30;99.90;;;;;;5035307;28;20651;-89
2021/06/06 02:01:58;;;;;;;54.08;31.02;;;13.30;99.90;;;;;;5035172;28;20179;-88
2021/06/06 02:04:24;;;;;;;53.08;32.15;;;13.30;99.90;;;;;;5036631;28;20160;-88
2021/06/06 02:07:00;;;;;;;54.83;33.33;;;13.30;99.90;;;;;;5033887;28;20168;-89
2021/06/06 02:09:28;;;;;;;44.58;29.15;;;13.40;99.90;;;;;;5036360;28;20215;-89
2021/06/06 02:12:01;;;;;;;52.58;30.73;;;13.30;99.90;;;;;;5035925;28;20621;-88
2021/06/06 02:14:36;;;;;;;42.83;30.38;;;13.40;99.90;;;;;;5036607;28;20176;-88
2021/06/06 02:17:07;;;;;;;49.10;31.85;;;13.30;99.90;;;;;;5033803;28;20267;-88
2021/06/06 02:19:34;;;;;;;58.92;35.08;;;13.30;99.90;;;;;;5034831;28;20568;-89
2021/06/06 02:22:05;;;;;;;66.82;37.25;;;13.20;99.90;;;;;;5034619;28;20183;-88
2021/06/06 02:24:32;;;;;;;52.15;34.90;;;13.30;99.90;;;;;;5035945;28;20623;-88
2021/06/06 02:27:16;;;;;;;53.63;32.25;;;13.30;99.90;;;;;;5051439;28;20627;-87
2021/06/06 02:29:50;;;;;;;55.83;33.08;;;13.30;99.90;;;;;;5035001;28;20373;-86
2021/06/06 02:32:42;;;;;;;54.33;36.30;;;13.20;99.90;;;;;;5067166;28;20175;-88
2021/06/06 02:35:24;;;;;;;52.95;31.63;;;13.10;99.90;;;;;;5040228;28;20170;-89
2021/06/06 02:38:17;;;;;;;56.50;35.63;;;13.00;99.90;;;;;;5039405;28;20168;-87
2021/06/06 02:40:48;;;;;;;57.33;34.67;;;13.00;99.90;;;;;;5023478;28;20207;-88
2021/06/06 02:43:52;;;;;;;65.13;36.97;;;13.00;99.90;;;;;;5035119;28;20176;-88
2021/06/06 02:46:21;;;;;;;55.17;34.00;;;13.00;99.90;;;;;;5025420;28;20233;-88
2021/06/06 02:48:51;;;;;;;44.70;30.55;;;12.90;99.90;;;;;;5035412;28;20628;-87
2021/06/06 02:51:21;;;;;;;79.10;44.92;;;12.90;99.90;;;;;;5034176;28;20183;-88
2021/06/06 02:54:01;;;;;;;83.40;43.67;;;12.90;99.90;;;;;;5068193;28;20620;-89
2021/06/06 02:56:37;;;;;;;73.80;43.17;;;12.80;99.90;;;;;;5034132;28;20171;-89
2021/06/06 02:59:11;;;;;;;69.03;38.92;;;12.80;99.90;;;;;;5035335;28;20242;-89
2021/06/06 03:01:44;;;;;;;64.55;38.65;;;12.80;99.90;;;;;;5034142;28;20176;-89
2021/06/06 03:04:12;;;;;;;65.40;38.20;;;12.80;99.90;;;;;;5036044;28;20251;-89
2021/06/06 03:06:48;;;;;;;57.90;35.45;;;12.80;99.90;;;;;;5035939;28;20176;-89
2021/06/06 03:09:15;;;;;;;52.28;35.92;;;12.80;99.90;;;;;;5035592;28;20329;-89
2021/06/06 03:11:43;;;;;;;63.38;37.45;;;12.70;99.90;;;;;;5050426;28;20215;-88
2021/06/06 03:14:13;;;;;;;57.05;36.42;;;12.70;99.90;;;;;;5034217;28;20171;-89
2021/06/06 03:17:17;;;;;;;65.93;38.55;;;12.60;99.90;;;;;;5034397;28;20164;-89
2021/06/06 03:19:47;;;;;;;67.18;40.00;;;12.60;99.90;;;;;;4996864;28;20263;-89
2021/06/06 03:22:17;;;;;;;47.88;33.10;;;12.70;99.90;;;;;;5026882;28;20191;-88
2021/06/06 03:25:12;;;;;;;57.08;35.33;;;12.70;99.90;;;;;;5035013;28;20179;-88
2021/06/06 03:27:41;;;;;;;52.38;35.75;;;12.60;99.90;;;;;;5034262;28;20192;-89
2021/06/06 03:30:58;;;;;;;50.00;33.33;;;12.50;99.90;;;;;;5032987;28;20245;-89
2021/06/06 03:33:35;;;;;;;56.95;33.45;;;12.50;99.90;;;;;;5012010;28;20184;-87
2021/06/06 03:36:01;;;;;;;64.68;38.88;;;12.40;99.90;;;;;;5034463;28;20176;-89
2021/06/06 03:38:26;;;;;;;69.93;38.75;;;12.40;99.90;;;;;;5035078;28;20357;-88
2021/06/06 03:40:52;;;;;;;68.50;37.28;;;12.40;99.90;;;;;;5033565;28;20184;-88
2021/06/06 03:43:19;;;;;;;62.15;35.95;;;12.50;99.90;;;;;;5034503;28;20167;-88
2021/06/06 03:45:45;;;;;;;64.53;37.00;;;12.50;99.90;;;;;;5034802;28;20168;-89
2021/06/06 03:48:11;;;;;;;59.30;37.17;;;12.60;99.90;;;;;;5033547;28;20172;-88
2021/06/06 03:50:39;;;;;;;54.92;33.83;;;12.60;99.90;;;;;;5034687;28;20234;-88
2021/06/06 03:53:06;;;;;;;55.92;35.22;;;12.60;99.90;;;;;;5034024;28;20164;-89
2021/06/06 03:55:32;;;;;;;56.28;35.28;;;12.60;99.90;;;;;;5033273;28;20181;-89
2021/06/06 03:57:58;;;;;;;67.70;37.38;;;12.60;99.90;;;;;;5034966;28;20501;-89
2021/06/06 04:00:33;;;;;;;56.85;34.80;;;12.60;99.90;;;;;;5032383;28;20225;-88
2021/06/06 04:03:00;;;;;;;64.55;37.35;;;12.70;99.90;;;;;;5034900;28;20156;-88
2021/06/06 04:05:26;;;;;;;64.65;35.72;;;12.70;99.90;;;;;;5032848;28;20226;-88
2021/06/06 04:07:52;;;;;;;54.90;32.97;;;12.80;99.90;;;;;;5034647;28;20612;-89
2021/06/06 04:10:19;;;;;;;48.08;33.95;;;12.80;99.90;;;;;;5032769;28;20187;-89
2021/06/06 04:12:44;;;;;;;49.15;31.17;;;12.90;99.90;;;;;;5034570;28;20171;-89
2021/06/06 04:15:11;;;;;;;47.83;31.00;;;12.80;99.90;;;;;;5015788;28;20184;-88
2021/06/06 04:17:36;;;;;;;50.80;33.08;;;12.90;99.90;;;;;;5064894;28;20266;-89
2021/06/06 04:20:04;;;;;;;52.53;33.50;;;13.00;99.90;;;;;;5033220;28;20300;-88
2021/06/06 04:22:29;;;;;;;48.08;30.10;;;13.10;99.90;;;;;;5032786;28;20168;-89
2021/06/06 04:24:55;;;;;;;45.08;30.45;;;13.10;99.90;;;;;;5033462;28;20603;-89
2021/06/06 04:27:21;;;;;;;43.47;29.75;;;13.20;99.90;;;;;;5032669;28;20612;-88
2021/06/06 04:29:47;;;;;;;28.58;23.67;;;13.30;99.90;;;;;;5066649;28;20237;-89
2021/06/06 04:32:15;;;;;;;28.23;22.50;;;13.30;99.90;;;;;;5032761;28;20183;-89
2021/06/06 04:34:42;;;;;;;27.85;18.15;;;13.30;99.90;;;;;;5047562;28;20168;-89
2021/06/06 04:37:10;;;;;;;17.48;15.73;;;13.30;99.90;;;;;;5032947;28;20180;-89
2021/06/06 04:39:36;;;;;;;16.58;14.88;;;13.50;99.90;;;;;;5032146;28;20212;-89
2021/06/06 04:42:09;;;;;;;20.58;18.20;;;13.70;99.90;;;;;;5034320;28;20179;-89
2021/06/06 04:44:34;;;;;;;19.73;17.65;;;13.90;99.90;;;;;;5035980;28;20175;-90
2021/06/06 04:47:00;;;;;;;20.60;17.30;;;14.20;99.90;;;;;;5069172;28;20179;-89
2021/06/06 04:49:26;;;;;;;16.23;14.27;;;14.60;99.90;;;;;;5053284;28;20310;-89
2021/06/06 04:51:51;;;;;;;25.05;17.33;;;15.20;99.90;;;;;;5036558;28;20203;-90
2021/06/06 04:54:17;;;;;;;23.13;18.27;;;15.80;99.90;;;;;;5037542;28;20172;-90
2021/06/06 04:56:43;;;;;;;19.02;17.15;;;16.50;99.90;;;;;;5038201;28;20172;-90
2021/06/06 04:59:08;;;;;;;18.30;16.35;;;17.10;99.90;;;;;;5036221;28;20769;-90
2021/06/06 05:01:34;;;;;;;19.40;15.85;;;17.70;99.90;;;;;;5058699;28;20177;-89
2021/06/06 05:04:00;;;;;;;18.30;16.52;;;18.30;99.90;;;;;;5004261;28;20176;-89
2021/06/06 05:06:25;;;;;;;18.88;16.58;;;19.00;99.90;;;;;;5037259;28;20176;-90
2021/06/06 05:08:51;;;;;;;15.73;14.38;;;19.60;99.90;;;;;;5053583;28;20180;-89
2021/06/06 05:11:18;;;;;;;19.38;14.75;;;20.30;99.90;;;;;;5036526;28;20176;-89
2021/06/06 05:13:43;;;;;;;15.90;14.43;;;20.90;99.90;;;;;;5036652;28;20172;-90
2021/06/06 05:16:09;;;;;;;17.08;15.38;;;21.30;99.90;;;;;;5037757;28;20169;-90
2021/06/06 05:18:36;;;;;;;17.52;15.93;;;21.70;99.90;;;;;;5068112;28;20230;-90
2021/06/06 05:21:03;;;;;;;19.35;17.40;;;22.10;99.90;;;;;;5037070;28;20689;-90
2021/06/06 05:23:30;;;;;;;26.58;16.23;;;22.70;99.90;;;;;;5049087;28;20513;-90
2021/06/06 05:25:56;;;;;;;16.02;14.38;;;23.30;99.90;;;;;;5042680;28;20176;-90
2021/06/06 05:28:25;;;;;;;13.43;12.23;;;24.00;99.90;;;;;;5036914;28;20633;-90
2021/06/06 05:30:52;;;;;;;15.40;13.82;;;24.60;99.90;;;;;;5036745;28;20203;-90
2021/06/06 05:33:18;;;;;;;14.63;13.18;;;25.10;99.90;;;;;;5036571;28;20251;-90
2021/06/06 05:35:44;;;;;;;14.48;13.00;;;25.70;99.90;;;;;;5038337;28;20266;-89
2021/06/06 05:38:12;;;;;;;13.30;12.18;;;26.40;99.90;;;;;;5052801;28;20234;-91
2021/06/06 05:40:39;;;;;;;13.82;11.80;;;27.00;99.90;;;;;;5038078;28;20180;-90
2021/06/06 05:43:06;;;;;;;12.65;11.63;;;27.40;99.90;;;;;;5036154;28;20164;-90
2021/06/06 05:45:33;;;;;;;17.00;13.20;;;27.70;99.90;;;;;;5034961;28;20187;-91
2021/06/06 05:48:00;;;;;;;13.63;12.40;;;27.80;99.90;;;;;;5035001;28;20182;-90
2021/06/06 05:50:30;;;;;;;14.05;12.15;;;28.10;99.90;;;;;;5037147;28;20172;-91
2021/06/06 05:52:55;;;;;;;14.45;13.00;;;28.60;99.90;;;;;;5035563;28;20168;-90
2021/06/06 05:55:22;;;;;;;14.75;13.25;;;29.10;99.90;;;;;;5051162;28;20172;-91
2021/06/06 05:57:49;;;;;;;16.17;14.77;;;29.70;99.90;;;;;;5037112;28;20172;-90
2021/06/06 06:00:20;;;;;;;17.95;16.25;;;30.30;99.90;;;;;;5034366;28;20192;-89
2021/06/06 06:02:46;;;;;;;17.75;16.15;;;30.90;99.90;;;;;;5036851;28;20632;-91
2021/06/06 06:05:12;;;;;;;15.30;14.00;;;31.30;99.90;;;;;;5068628;28;20218;-91
2021/06/06 06:07:37;;;;;;;19.55;15.45;;;31.80;99.90;;;;;;5034853;28;20168;-91
2021/06/06 06:10:08;;;;;;;15.95;12.82;;;32.20;99.90;;;;;;5038661;28;20175;-91
2021/06/06 06:12:35;;;;;;;14.52;13.02;;;32.50;99.90;;;;;;5036133;28;20174;-91
2021/06/06 06:15:01;;;;;;;15.10;13.70;;;32.90;98.70;;;;;;5046577;28;20202;-90
2021/06/06 06:17:26;;;;;;;17.05;14.25;;;33.30;98.30;;;;;;5034819;28;20616;-90
2021/06/06 06:19:52;;;;;;;19.15;17.25;;;33.80;97.30;;;;;;5036695;28;20195;-92
2021/06/06 06:22:18;;;;;;;18.20;16.50;;;34.40;95.70;;;;;;5035841;28;20262;-91
2021/06/06 06:24:43;;;;;;;18.45;16.10;;;34.70;95.20;;;;;;5036467;28;20255;-88
2021/06/06 06:27:09;;;;;;;13.98;12.77;;;35.10;94.80;;;;;;5035798;28;20255;-89
2021/06/06 06:29:34;;;;;;;20.85;17.40;;;35.30;94.30;;;;;;5036143;28;20250;-91
2021/06/06 06:32:00;;;;;;;18.25;15.18;;;35.60;91.30;;;;;;5017381;28;20175;-90
2021/06/06 06:34:26;;;;;;;20.85;16.10;;;35.80;91.00;;;;;;5035803;28;20179;-91
2021/06/06 06:36:52;;;;;;;19.98;16.55;;;35.90;90.50;;;;;;5067649;28;20237;-90
2021/06/06 06:39:17;;;;;;;19.85;16.63;;;35.40;90.00;;;;;;5035999;28;20290;-90
2021/06/06 06:41:43;;;;;;;18.05;16.15;;;35.40;90.40;;;;;;5036825;28;20179;-89
2021/06/06 06:44:09;;;;;;;17.30;15.55;;;36.20;88.60;;;;;;5034928;28;20168;-90
2021/06/06 06:46:35;;;;;;;17.80;15.90;;;36.40;86.70;;;;;;5051064;28;20205;-91
2021/06/06 06:49:00;;;;;;;20.58;15.15;;;36.50;85.00;;;;;;5050931;28;20270;-91
2021/06/06 06:51:27;;;;;;;29.13;16.75;;;36.30;84.40;;;;;;5035205;28;20243;-90
2021/06/06 06:53:56;;;;;;;17.38;15.65;;;36.50;85.90;;;;;;5035712;28;20615;-87
2021/06/06 06:56:25;;;;;;;15.07;13.70;;;36.90;83.20;;;;;;5034021;28;20683;-90
2021/06/06 06:58:52;;;;;;;16.27;14.70;;;37.00;82.10;;;;;;5034625;28;20205;-90
2021/06/06 07:01:18;;;;;;;16.15;14.55;;;37.10;80.20;;;;;;5033640;28;20171;-89
2021/06/06 07:03:44;;;;;;;16.85;15.30;;;37.70;79.60;;;;;;5035174;28;20164;-92
2021/06/06 07:06:11;;;;;;;16.25;14.52;;;38.30;78.80;;;;;;5034124;28;20179;-89
2021/06/06 07:08:39;;;;;;;15.80;14.20;;;38.80;77.30;;;;;;5068416;28;20195;-89
2021/06/06 07:11:06;;;;;;;15.55;13.95;;;39.10;76.60;;;;;;5031709;28;20282;-89
2021/06/06 07:13:33;;;;;;;15.32;13.88;;;39.10;76.00;;;;;;5055060;28;20198;-88
2021/06/06 07:16:00;;;;;;;13.63;12.30;;;39.30;74.60;;;;;;5038066;28;20186;-89
2021/06/06 07:18:27;;;;;;;26.02;11.45;;;39.40;75.50;;;;;;5034029;28;20183;-89
2021/06/06 07:20:57;;;;;;;10.10;9.13;;;39.90;73.00;;;;;;5071253;28;20228;-89
2021/06/06 07:23:28;;;;;;;9.43;8.57;;;39.20;71.20;;;;;;5038488;28;20237;-89
2021/06/06 07:25:57;;;;;;;10.02;8.65;;;39.50;70.90;;;;;;5039427;28;20542;-89
2021/06/06 07:28:25;;;;;;;19.35;9.15;;;39.60;69.60;;;;;;5038305;28;20285;-87
2021/06/06 07:30:57;;;;;;;9.68;8.77;;;39.60;69.40;;;;;;5035429;28;20182;-88
2021/06/06 07:33:27;;;;;;;10.05;9.15;;;39.40;68.80;;;;;;5035726;28;20195;-91
2021/06/06 07:35:53;;;;;;;11.57;10.02;;;39.00;68.70;;;;;;5034730;28;20191;-91
2021/06/06 07:38:23;;;;;;;10.00;9.10;;;39.30;70.00;;;;;;5038116;28;20171;-92
2021/06/06 07:40:48;;;;;;;10.10;9.27;;;39.90;69.10;;;;;;5036803;28;20200;-92
2021/06/06 07:43:15;;;;;;;10.88;9.88;;;40.20;67.80;;;;;;5036490;28;20175;-92
2021/06/06 07:45:42;;;;;;;9.80;8.90;;;39.80;66.80;;;;;;5019841;28;20243;-90
2021/06/06 07:48:08;;;;;;;10.45;9.52;;;39.70;68.00;;;;;;5028851;28;20302;-89
2021/06/06 07:50:37;;;;;;;9.02;8.32;;;39.60;66.30;;;;;;5016474;28;20160;-90
2021/06/06 07:53:04;;;;;;;10.60;9.10;;;39.80;67.50;;;;;;5024946;28;20255;-91
2021/06/06 07:55:30;;;;;;;11.00;9.90;;;40.60;65.90;;;;;;5035764;28;20194;-92
2021/06/06 07:57:56;;;;;;;11.43;8.98;;;41.40;64.80;;;;;;5038624;28;20163;-90
2021/06/06 08:00:29;;;;;;;8.95;8.25;;;41.30;65.60;;;;;;5038192;28;20180;-89
2021/06/06 08:02:55;;;;;;;13.23;9.77;;;41.30;66.10;;;;;;5045576;28;20160;-92
2021/06/06 08:05:22;;;;;;;9.30;8.60;;;41.50;64.30;;;;;;5038711;28;20254;-90
2021/06/06 08:07:48;;;;;;;10.82;9.57;;;41.50;63.30;;;;;;5037414;28;20172;-90
2021/06/06 08:10:17;;;;;;;9.73;7.15;;;40.90;64.30;;;;;;5053659;28;20264;-90
2021/06/06 08:12:43;;;;;;;6.40;5.93;;;41.30;65.00;;;;;;5038649;28;20197;-89
2021/06/06 08:15:11;;;;;;;6.85;6.35;;;41.60;62.20;;;;;;5037582;28;20163;-91
2021/06/06 08:17:37;;;;;;;6.28;5.68;;;41.00;63.10;;;;;;5037435;28;20152;-91
2021/06/06 08:20:07;;;;;;;6.93;6.43;;;41.10;63.60;;;;;;5035266;28;20650;-88
2021/06/06 08:22:34;;;;;;;6.50;6.00;;;41.60;63.80;;;;;;5037526;28;20243;-90
2021/06/06 08:25:00;;;;;;;6.88;6.47;;;42.50;62.10;;;;;;5053355;28;20186;-88
2021/06/06 08:27:25;;;;;;;5.70;5.20;;;41.50;61.30;;;;;;5053146;28;20600;-88
2021/06/06 08:29:53;;;;;;;5.80;5.32;;;41.70;61.80;;;;;;5034295;28;20314;-89
2021/06/06 08:32:18;;;;;;;8.27;6.28;;;42.40;62.00;;;;;;5034740;28;20174;-90
2021/06/06 08:34:44;;;;;;;4.55;4.15;;;42.70;60.60;;;;;;5055930;28;20242;-88
2021/06/06 08:37:10;;;;;;;6.30;5.80;;;42.80;61.20;;;;;;5045903;28;20191;-89
2021/06/06 08:39:36;;;;;;;20.60;6.72;;;43.10;61.70;;;;;;5042190;28;20282;-89
2021/06/06 08:42:07;;;;;;;5.63;5.22;;;42.60;63.20;;;;;;5050421;28;20167;-89
2021/06/06 08:44:43;;;;;;;7.05;6.53;;;42.00;61.60;;;;;;5052048;28;20171;-89
2021/06/06 08:47:21;;;;;;;7.18;6.53;;;42.30;60.30;;;;;;5042517;28;20233;-88
2021/06/06 08:49:50;;;;;;;6.13;5.63;;;42.60;59.50;;;;;;5038023;28;20601;-89
2021/06/06 08:52:44;;;;;;;7.78;6.90;;;43.10;59.80;;;;;;5042229;28;20164;-89
2021/06/06 08:55:38;;;;;;;7.72;7.05;;;43.90;59.00;;;;;;5044857;28;20207;-89
2021/06/06 08:59:20;;;;;;;6.57;6.07;;;43.80;57.90;;;;;;5034806;28;20144;-91
2021/06/06 09:02:04;;;;;;;6.75;6.15;;;42.50;60.50;;;;;;4992718;28;20184;-88
2021/06/06 09:04:35;;;;;;;7.70;6.88;;;42.50;60.50;;;;;;4976528;28;20565;-90
2021/06/06 09:07:11;;;;;;;8.68;5.93;;;42.50;61.50;;;;;;5018172;28;20198;-89
2021/06/06 09:09:40;;;;;;;5.15;4.43;;;43.50;60.30;;;;;;5066062;28;20211;-89
2021/06/06 09:12:09;;;;;;;6.18;4.53;;;43.60;60.30;;;;;;5034583;28;20166;-89
2021/06/06 09:14:35;;;;;;;6.13;5.63;;;43.10;58.80;;;;;;5034134;28;20682;-89
2021/06/06 09:17:13;;;;;;;4.75;4.28;;;43.20;59.20;;;;;;5032323;28;20168;-89
2021/06/06 09:19:45;;;;;;;5.43;5.03;;;43.70;58.80;;;;;;5045100;28;20175;-88
2021/06/06 09:22:13;;;;;;;5.70;5.20;;;43.90;58.90;;;;;;5032703;28;20179;-90
2021/06/06 09:24:47;;;;;;;6.95;5.72;;;43.90;57.80;;;;;;5032859;28;20163;-92
2021/06/06 09:27:22;;;;;;;12.73;5.70;;;43.60;58.00;;;;;;5033026;28;20167;-90
2021/06/06 09:30:14;;;;;;;6.75;6.10;;;42.80;59.20;;;;;;5035827;28;20250;-90
2021/06/06 09:32:41;;;;;;;5.78;5.38;;;42.10;59.30;;;;;;5037808;28;20152;-90
2021/06/06 09:35:27;;;;;;;5.03;4.63;;;41.50;61.10;;;;;;5036961;28;20655;-90
2021/06/06 09:38:13;;;;;;;5.85;5.38;;;42.10;59.90;;;;;;5038553;28;20190;-90
2021/06/06 09:40:42;;;;;;;5.90;5.50;;;42.20;58.70;;;;;;5036340;28;20229;-89
2021/06/06 09:43:19;;;;;;;6.38;5.72;;;42.60;58.70;;;;;;5036324;28;20211;-90
2021/06/06 09:45:46;;;;;;;10.48;5.75;;;43.30;57.80;;;;;;5054504;28;20154;-91
2021/06/06 09:48:23;;;;;;;4.82;4.43;;;42.40;58.50;;;;;;5072863;28;20264;-91
2021/06/06 09:50:51;;;;;;;3.70;3.40;;;41.80;59.10;;;;;;5042797;28;20163;-91
2021/06/06 09:53:23;;;;;;;4.43;3.97;;;42.50;58.50;;;;;;5036037;28;20175;-91
2021/06/06 09:55:49;;;;;;;6.50;4.80;;;42.50;58.50;;;;;;5052539;28;20268;-89
2021/06/06 09:58:24;;;;;;;4.45;4.05;;;41.70;57.80;;;;;;5037060;28;20159;-89
2021/06/06 10:00:53;;;;;;;4.57;4.18;;;42.10;56.30;;;;;;5037241;28;20647;-90
2021/06/06 10:03:21;;;;;;;4.65;4.25;;;42.30;56.90;;;;;;5037063;28;20255;-90
2021/06/06 10:05:48;;;;;;;6.32;4.53;;;42.20;56.80;;;;;;5037198;28;20159;-90
2021/06/06 10:08:24;;;;;;;4.80;4.50;;;42.60;57.60;;;;;;5038177;28;20175;-90
2021/06/06 10:11:12;;;;;;;5.32;4.82;;;41.30;58.60;;;;;;5037093;28;20163;-89
2021/06/06 10:13:43;;;;;;;5.20;4.80;;;42.40;58.10;;;;;;5036883;28;20155;-89
2021/06/06 10:16:13;;;;;;;5.40;4.90;;;42.30;58.50;;;;;;5051566;28;20166;-86
2021/06/06 10:18:58;;;;;;;4.75;4.35;;;41.70;59.40;;;;;;5036129;28;20241;-87
2021/06/06 10:21:33;;;;;;;4.45;4.10;;;41.80;59.80;;;;;;5036001;28;20154;-87
2021/06/06 10:24:05;;;;;;;4.20;3.80;;;42.10;57.50;;;;;;5034740;28;20250;-86
2021/06/06 10:26:52;;;;;;;3.35;3.05;;;41.20;56.80;;;;;;5035561;28;20213;-87
2021/06/06 10:29:24;;;;;;;4.78;4.38;;;41.40;58.70;;;;;;5035954;28;20191;-87
2021/06/06 10:31:53;;;;;;;6.07;4.22;;;40.80;58.40;;;;;;5051391;28;20178;-86
2021/06/06 10:34:39;;;;;;;3.40;3.15;;;41.20;59.20;;;;;;5037913;28;20170;-87
2021/06/06 10:37:05;;;;;;;4.55;4.15;;;42.30;57.70;;;;;;5045736;28;20190;-87
2021/06/06 10:39:38;;;;;;;4.13;3.60;;;43.50;57.30;;;;;;5017477;28;20192;-87
2021/06/06 10:42:11;;;;;;;4.10;3.80;;;43.40;56.30;;;;;;5033781;28;20156;-85
2021/06/06 10:44:36;;;;;;;4.60;4.18;;;43.30;57.50;;;;;;5034509;28;20156;-88
2021/06/06 10:47:05;;;;;;;5.28;4.88;;;42.90;56.10;;;;;;5035598;28;20174;-86
2021/06/06 10:49:49;;;;;;;4.50;4.20;;;42.70;56.40;;;;;;5035715;28;20286;-87
2021/06/06 10:52:34;;;;;;;3.70;3.42;;;42.20;60.80;;;;;;5035545;28;20234;-89
2021/06/06 10:55:18;;;;;;;4.47;4.15;;;41.50;59.10;;;;;;5035523;28;20155;-87
2021/06/06 10:57:44;;;;;;;6.18;4.35;;;40.70;58.60;;;;;;5035372;28;20147;-87
2021/06/06 11:00:25;;;;;;;3.95;3.20;;;40.90;59.20;;;;;;5034360;28;20646;-87
2021/06/06 11:03:25;;;;;;;4.70;4.30;;;40.70;60.60;;;;;;5030514;28;20168;-85
2021/06/06 11:06:00;;;;;;;9.30;3.95;;;41.30;59.00;;;;;;5047205;28;20178;-87
2021/06/06 11:08:31;;;;;;;4.93;4.50;;;41.80;57.50;;;;;;5033241;28;20185;-83
2021/06/06 11:11:21;;;;;;;4.32;3.92;;;42.50;57.90;;;;;;5049847;28;20648;-84
2021/06/06 11:13:55;;;;;;;4.30;4.00;;;43.10;56.60;;;;;;5034207;28;20238;-83
2021/06/06 11:16:33;;;;;;;4.07;3.67;;;42.30;57.70;;;;;;5034536;28;20290;-85
2021/06/06 11:19:04;;;;;;;4.18;3.88;;;41.40;57.20;;;;;;5034689;28;20466;-84
2021/06/06 11:21:38;;;;;;;4.40;4.00;;;41.10;57.50;;;;;;5032802;28;20213;-83
2021/06/06 11:24:44;;;;;;;3.35;3.05;;;40.90;57.50;;;;;;5034376;28;20242;-83
2021/06/06 11:27:09;;;;;;;3.58;3.28;;;40.30;60.40;;;;;;5033094;28;20186;-84
2021/06/06 11:29:41;;;;;;;4.15;3.85;;;40.80;59.40;;;;;;5049670;28;20286;-84
2021/06/06 11:32:10;;;;;;;17.23;4.55;;;41.00;58.50;;;;;;5033909;28;20156;-82
2021/06/06 11:34:38;;;;;;;3.30;2.63;;;41.30;57.90;;;;;;5041723;28;20162;-83
2021/06/06 11:37:12;;;;;;;3.50;2.80;;;41.50;57.80;;;;;;5053343;28;20631;-85
2021/06/06 11:39:41;;;;;;;4.38;2.72;;;40.00;58.60;;;;;;5052853;28;20269;-86
2021/06/06 11:42:25;;;;;;;2.10;1.95;;;40.00;59.50;;;;;;5052602;28;20163;-86
2021/06/06 11:44:54;;;;;;;3.13;2.92;;;40.50;58.80;;;;;;5052272;28;20173;-83
2021/06/06 11:47:27;;;;;;;3.38;3.10;;;40.30;57.40;;;;;;5069322;28;20167;-83
2021/06/06 11:50:10;;;;;;;5.38;3.17;;;40.00;59.80;;;;;;5053219;28;20286;-83
2021/06/06 11:52:41;;;;;;;4.82;3.15;;;40.00;59.70;;;;;;5052546;28;20163;-90
2021/06/06 11:55:31;;;;;;;3.00;2.80;;;40.20;59.60;;;;;;5054634;28;20153;-88
2021/06/06 11:58:07;;;;;;;3.10;2.80;;;40.50;59.80;;;;;;5054306;28;20183;-87
2021/06/06 12:00:46;;;;;;;5.32;2.55;;;37.30;61.10;;;;;;5055007;28;20171;-87
2021/06/06 12:03:12;;;;;;;2.53;2.30;;;35.40;64.60;;;;;;5053942;28;20170;-86
2021/06/06 12:05:49;;;;;;;2.85;2.65;;;36.30;63.80;;;;;;5068839;28;20242;-84
2021/06/06 12:08:16;;;;;;;3.33;2.47;;;37.10;65.40;;;;;;5052048;28;20212;-85
2021/06/06 12:10:52;;;;;;;2.85;2.33;;;37.70;62.00;;;;;;5053583;28;20212;-86
2021/06/06 12:13:24;;;;;;;3.97;3.03;;;36.90;61.50;;;;;;5051988;28;20169;-85
2021/06/06 12:15:50;;;;;;;3.15;2.85;;;37.50;60.10;;;;;;5053549;28;20154;-83
2021/06/06 12:18:19;;;;;;;8.25;4.05;;;36.80;61.70;;;;;;5052039;28;20588;-86
2021/06/06 12:21:02;;;;;;;2.67;1.88;;;35.00;65.20;;;;;;5068505;28;20163;-83
2021/06/06 12:23:34;;;;;;;1.80;1.70;;;33.00;67.60;;;;;;5053419;28;20177;-84
2021/06/06 12:26:27;;;;;;;3.33;1.80;;;31.50;69.80;;;;;;5053126;28;20480;-83
2021/06/06 12:28:55;;;;;;;2.55;1.70;;;30.50;70.60;;;;;;5053368;28;20191;-85
2021/06/06 12:31:29;;;;;;;4.65;2.15;;;29.90;72.70;;;;;;5052853;28;20178;-85
2021/06/06 12:33:56;;;;;;;4.93;1.60;;;29.30;74.30;;;;;;5042971;28;20159;-85
2021/06/06 12:36:27;;;;;;;2.15;1.30;;;28.80;74.90;;;;;;5051910;28;20296;-84
2021/06/06 12:39:02;;;;;;;1.42;1.20;;;28.50;77.60;;;;;;5053250;28;20264;-84
2021/06/06 12:41:30;;;;;;;1.38;1.27;;;28.20;77.50;;;;;;5052189;28;20685;-85
2021/06/06 12:43:58;;;;;;;5.47;1.55;;;27.80;76.40;;;;;;5051817;28;20167;-84
2021/06/06 12:46:25;;;;;;;1.75;1.27;;;27.50;76.10;;;;;;5053285;28;20254;-84
2021/06/06 12:49:06;;;;;;;1.27;1.20;;;27.30;76.30;;;;;;5053351;28;20199;-85
2021/06/06 12:51:44;;;;;;;1.75;1.30;;;27.20;78.30;;;;;;5053985;28;20186;-83
2021/06/06 12:54:23;;;;;;;2.08;1.95;;;27.00;78.10;;;;;;5052944;28;20213;-83
2021/06/06 12:56:51;;;;;;;1.88;1.60;;;26.90;76.60;;;;;;5053181;28;20151;-82